Charleston Air Force Base-International Airport
KCHS : rendu visible

Aérodrome :











RETROUVEZ-NOUS SUR...

 
LOGIN :

S'inscrire | Disclaimer

   EN    FR    IT 

 









Légende :    VFR   VFR Marginal   IFR   IFR Intensif   IFR Très Intensif
Visi : 
Plafond : 
>= 8 km
>= 3000ft
5 à 8 km
1000 à 3000 ft
1500m à 5 km
500 à 1000 ft
800 à 1500m
200 à 500 ft
< 800m
< 200 ft
Symboles :   Orages  Brouillard  Fortes neiges  Fortes précipitations  Vent > 20 kt






- Altitude de l'aérodrome : 46 ft
- Code IATA : CHS


KCHS - Charleston Air Force Base-International

DERNIER METAR :
  • 150656Z 02009KT 5SM -RA BR OVC004 07/07 A3014 RMK AO2 SLP206 P0002 T00720067 $

METARs EXPIRÉS :
  • 150556Z 01007KT 5SM -RA BR OVC005 07/07 A3017 RMK AO2 SLP214 P0002 60003 T00720072 10078 20072 56019 $
  • 150456Z 02008KT 5SM -RA BR OVC005 07/07 A3019 RMK AO2 SLP221 P0001 T00720067 400940017 $

TAF KCHS
Valide du 15 à 06h jusqu'au 16 à 06h UTC


150535Z 1506/1606 01008KT 5SM -RA BR OVC004
FM151100 01009KT 2SM RA BR SCT002 OVC004
FM151600 35011KT 5SM -RA BR OVC006
FM152000 36010G18KT P6SM SCT006 OVC008



MET'MAP, la Météo Aéronautique d'un coup d'oeil ! - Copyright ORBIFLY Décembre 2007 - Disclaimer

ORBIFLY MET'MAP TEAM :

Programmation & Développement : Alexandra Zaïnal
Conception & Développement : Baudouin d'Aumeries
Co-Programmation & Développement : Marc-Olivier Méhu
Soutien technique & logistique : Manuel Goepfert

Contact : metmap@orbifly.com




SOURCES & CREDITS :

   NOAA       Earth
Advisory